Time;durP1;ratioP1;P1;durP2;ratioP2;P2;SDS_P1;SDS_P2;PMS_P1;PMS_P2;Temp;Humidity;BMP_temperature;BMP_pressure;BME280_temperature;BME280_humidity;BME280_pressure;Samples;Min_cycle;Max_cycle;Signal;HPM_P1;HPM_P2
2022/01/01 00:01:36;;;;;;;2.50;1.10;;;11.40;73.50;;;;;;2351399;53;21416;-75
2022/01/01 00:04:03;;;;;;;3.20;1.50;;;11.40;73.30;;;;;;2362133;53;20994;-75
2022/01/01 00:06:29;;;;;;;4.47;2.25;;;11.30;73.10;;;;;;2355053;53;20939;-75
2022/01/01 00:08:55;;;;;;;9.40;5.45;;;11.30;73.10;;;;;;2364815;53;20975;-75
2022/01/01 00:11:23;;;;;;;10.73;5.75;;;11.20;73.10;;;;;;2384870;53;21029;-75
2022/01/01 00:13:50;;;;;;;10.98;5.45;;;11.20;73.20;;;;;;2362711;53;21526;-76
2022/01/01 00:16:16;;;;;;;9.55;4.10;;;11.20;73.40;;;;;;2318286;54;21122;-75
2022/01/01 00:18:43;;;;;;;6.75;3.28;;;11.10;73.50;;;;;;2341291;53;20988;-75
2022/01/01 00:21:09;;;;;;;6.53;2.87;;;11.10;73.60;;;;;;2363942;53;20930;-75
2022/01/01 00:23:35;;;;;;;7.60;2.65;;;11.00;73.40;;;;;;2481888;52;21041;-75
2022/01/01 00:26:01;;;;;;;7.57;4.10;;;11.00;73.30;;;;;;2369575;53;20942;-75
2022/01/01 00:28:28;;;;;;;9.45;5.68;;;11.00;73.10;;;;;;2369411;53;20940;-75
2022/01/01 00:30:54;;;;;;;8.38;4.75;;;10.90;72.60;;;;;;2368826;53;21327;-75
2022/01/01 00:33:21;;;;;;;8.20;4.95;;;10.90;72.60;;;;;;2596632;52;21745;-75
2022/01/01 00:35:48;;;;;;;8.07;4.68;;;10.80;72.50;;;;;;2369385;53;20986;-75
2022/01/01 00:38:14;;;;;;;5.90;3.85;;;10.70;72.40;;;;;;2370868;53;20981;-75
2022/01/01 00:40:41;;;;;;;4.28;2.33;;;10.70;72.50;;;;;;2597783;52;21048;-75
2022/01/01 00:43:07;;;;;;;4.00;2.33;;;10.60;72.50;;;;;;2370070;53;20968;-75
2022/01/01 00:45:33;;;;;;;3.28;1.70;;;10.60;72.80;;;;;;2369803;53;21061;-75
2022/01/01 00:48:00;;;;;;;7.25;3.85;;;10.60;72.90;;;;;;2622619;52;20887;-75
2022/01/01 00:50:26;;;;;;;6.32;3.37;;;10.50;72.80;;;;;;2411365;52;20922;-75
2022/01/01 00:52:53;;;;;;;5.95;3.40;;;10.50;72.90;;;;;;2370640;53;21337;-75
2022/01/01 00:55:19;;;;;;;9.48;5.68;;;10.40;72.90;;;;;;2440316;53;20975;-75
2022/01/01 00:57:47;;;;;;;6.53;3.60;;;10.40;72.90;;;;;;2347726;53;20952;-75
2022/01/01 01:00:14;;;;;;;4.75;2.50;;;10.40;73.10;;;;;;2429375;52;21031;-75
2022/01/01 01:02:40;;;;;;;3.60;1.90;;;10.30;73.30;;;;;;2354498;53;21017;-75
2022/01/01 01:05:07;;;;;;;3.15;1.67;;;10.30;73.50;;;;;;2612297;52;20987;-75
2022/01/01 01:07:33;;;;;;;3.87;1.60;;;10.30;73.80;;;;;;2334941;54;20999;-76
2022/01/01 01:09:59;;;;;;;2.70;1.30;;;10.30;74.00;;;;;;2336662;54;20953;-75
2022/01/01 01:12:37;;;;;;;7.05;3.90;;;10.30;74.20;;;;;;2362355;53;20989;-75
2022/01/01 01:15:06;;;;;;;29.40;11.80;;;10.20;74.20;;;;;;2434619;52;21001;-75
2022/01/01 01:17:33;;;;;;;29.95;13.18;;;10.20;74.00;;;;;;2367528;53;21375;-75
2022/01/01 01:19:59;;;;;;;28.95;13.82;;;10.20;73.90;;;;;;2616186;52;22002;-74
2022/01/01 01:22:28;;;;;;;33.85;14.50;;;10.20;73.80;;;;;;2331690;54;21711;-75
2022/01/01 01:24:54;;;;;;;24.50;11.40;;;10.20;73.60;;;;;;2621795;52;20982;-75
2022/01/01 01:27:20;;;;;;;22.98;10.45;;;10.10;73.30;;;;;;2494279;52;20934;-75
2022/01/01 01:29:47;;;;;;;18.40;9.40;;;10.10;73.30;;;;;;2369893;53;20938;-75
2022/01/01 01:32:16;;;;;;;14.57;7.35;;;10.10;73.20;;;;;;2426275;52;20982;-75
2022/01/01 01:34:42;;;;;;;12.45;6.65;;;10.10;73.10;;;;;;2592270;52;21023;-75
2022/01/01 01:37:09;;;;;;;10.02;5.30;;;10.00;73.00;;;;;;2369750;53;21494;-74
2022/01/01 01:39:35;;;;;;;14.82;7.18;;;10.00;73.10;;;;;;2378793;52;20985;-75
2022/01/01 01:42:01;;;;;;;16.85;7.97;;;10.00;73.10;;;;;;2370628;53;20969;-75
2022/01/01 01:44:31;;;;;;;13.65;6.90;;;9.90;74.00;;;;;;2334721;53;20905;-74
2022/01/01 01:47:01;;;;;;;17.20;7.65;;;9.90;74.00;;;;;;2369064;53;20986;-75
2022/01/01 01:49:27;;;;;;;18.83;9.50;;;9.90;74.10;;;;;;2474760;52;21548;-75
2022/01/01 01:51:54;;;;;;;20.65;9.43;;;9.80;74.00;;;;;;2427082;52;20983;-75
2022/01/01 01:54:20;;;;;;;20.17;9.77;;;9.80;74.10;;;;;;2366312;53;21719;-75
2022/01/01 01:56:46;;;;;;;22.62;10.88;;;9.80;73.90;;;;;;2397190;52;21500;-75
2022/01/01 01:59:14;;;;;;;17.25;9.02;;;9.70;73.80;;;;;;2595219;52;20946;-75
2022/01/01 02:01:41;;;;;;;12.70;6.10;;;9.70;74.00;;;;;;2358510;53;20985;-74
2022/01/01 02:04:07;;;;;;;7.85;4.37;;;9.70;74.50;;;;;;2593377;52;20992;-74
2022/01/01 02:06:34;;;;;;;13.85;6.60;;;9.60;75.00;;;;;;2361508;53;21035;-75
2022/01/01 02:09:01;;;;;;;9.18;4.55;;;9.60;75.50;;;;;;2588252;53;20963;-75
2022/01/01 02:11:27;;;;;;;5.30;3.15;;;9.60;75.90;;;;;;2362541;53;20906;-75
2022/01/01 02:16:50;;;;;;;3.70;2.17;;;9.70;77.00;;;;;;2417604;53;21497;-75
2022/01/01 02:19:21;;;;;;;3.92;2.10;;;9.70;77.30;;;;;;2374352;53;20929;-75
2022/01/01 02:21:51;;;;;;;4.85;2.25;;;9.80;77.30;;;;;;2332581;54;20943;-74
2022/01/01 02:24:21;;;;;;;4.07;2.22;;;9.80;77.00;;;;;;2354780;53;20983;-75
2022/01/01 02:26:47;;;;;;;4.43;2.20;;;9.80;76.70;;;;;;2617145;52;20926;-75
2022/01/01 02:29:13;;;;;;;3.58;2.10;;;9.90;76.50;;;;;;2371289;53;20914;-75
2022/01/01 02:31:39;;;;;;;4.75;2.42;;;9.90;76.30;;;;;;2368990;53;20967;-75
2022/01/01 02:34:06;;;;;;;3.95;1.87;;;9.90;76.00;;;;;;2351157;53;21821;-74
2022/01/01 02:36:42;;;;;;;4.68;2.30;;;9.90;75.60;;;;;;2372374;53;20985;-76
2022/01/01 02:39:17;;;;;;;4.00;2.20;;;9.80;75.10;;;;;;2351812;53;20966;-75
2022/01/01 02:41:44;;;;;;;5.10;2.37;;;9.80;74.90;;;;;;2470707;52;21072;-75
2022/01/01 02:44:10;;;;;;;4.05;2.03;;;9.80;75.00;;;;;;2370968;53;20902;-75
2022/01/01 02:46:36;;;;;;;4.62;2.50;;;9.80;74.90;;;;;;2371245;53;20969;-75
2022/01/01 02:49:04;;;;;;;7.65;3.60;;;9.70;74.70;;;;;;2349849;54;20988;-74
2022/01/01 02:51:30;;;;;;;6.20;2.90;;;9.70;74.80;;;;;;2608196;52;20933;-75
2022/01/01 02:53:57;;;;;;;5.87;2.90;;;9.80;75.40;;;;;;2459446;52;21020;-75
2022/01/01 02:56:26;;;;;;;5.22;2.62;;;9.70;76.00;;;;;;2336753;53;21002;-75
2022/01/01 02:58:52;;;;;;;4.87;2.15;;;9.70;76.60;;;;;;2369446;53;21074;-75
2022/01/01 03:01:18;;;;;;;4.93;2.42;;;9.70;77.00;;;;;;2474717;54;20907;-75
2022/01/01 03:03:49;;;;;;;3.60;1.90;;;9.80;77.30;;;;;;2453051;53;20936;-75
2022/01/01 03:06:19;;;;;;;4.22;2.03;;;9.80;77.60;;;;;;2364047;53;21005;-75
2022/01/01 03:08:54;;;;;;;3.37;1.73;;;9.90;77.80;;;;;;2370735;53;21714;-75
2022/01/01 03:11:20;;;;;;;4.55;1.98;;;9.90;77.90;;;;;;2351109;54;21054;-75
2022/01/01 03:13:48;;;;;;;3.42;1.73;;;9.90;77.80;;;;;;2579497;52;21055;-75
2022/01/01 03:16:14;;;;;;;3.40;1.67;;;10.00;76.90;;;;;;2340802;53;20970;-75
2022/01/01 03:18:40;;;;;;;3.47;1.80;;;10.00;76.80;;;;;;2385195;52;20946;-75
2022/01/01 03:21:07;;;;;;;3.72;1.87;;;10.10;76.40;;;;;;2370485;53;20914;-75
2022/01/01 03:23:33;;;;;;;4.15;2.10;;;10.10;75.90;;;;;;2370411;53;20918;-75
2022/01/01 03:25:59;;;;;;;3.30;1.58;;;10.00;75.40;;;;;;2370821;53;20986;-75
2022/01/01 03:28:27;;;;;;;3.03;1.65;;;10.10;75.50;;;;;;2494890;52;20978;-75
2022/01/01 03:30:56;;;;;;;2.60;1.40;;;10.10;75.70;;;;;;2390379;53;20908;-75
2022/01/01 03:33:23;;;;;;;3.30;1.62;;;10.10;75.80;;;;;;2529669;53;21002;-75
2022/01/01 03:35:50;;;;;;;3.47;1.70;;;10.10;76.10;;;;;;2351604;53;20910;-75
2022/01/01 03:38:16;;;;;;;2.95;1.33;;;10.10;76.40;;;;;;2432142;52;21016;-75
2022/01/01 03:40:43;;;;;;;4.05;1.80;;;10.20;76.60;;;;;;2442442;53;21091;-75
2022/01/01 03:43:10;;;;;;;4.78;2.05;;;10.20;76.20;;;;;;2362213;53;21000;-75
2022/01/01 03:45:40;;;;;;;3.47;1.75;;;10.20;75.60;;;;;;2341463;53;20946;-74
2022/01/01 03:48:06;;;;;;;4.12;2.28;;;10.20;75.20;;;;;;2351419;53;21051;-75
2022/01/01 03:50:33;;;;;;;3.42;1.90;;;10.20;74.70;;;;;;2371031;53;21401;-74
2022/01/01 03:52:59;;;;;;;3.05;1.73;;;10.20;74.30;;;;;;2370990;53;20994;-75
2022/01/01 03:55:27;;;;;;;3.62;1.90;;;10.10;73.90;;;;;;2375357;52;20990;-75
2022/01/01 03:57:53;;;;;;;3.03;1.65;;;10.10;73.70;;;;;;2579197;52;21002;-75
2022/01/01 04:00:19;;;;;;;3.33;1.77;;;10.00;73.30;;;;;;2372072;53;20944;-75
2022/01/01 04:02:46;;;;;;;4.03;1.90;;;10.00;73.00;;;;;;2371946;53;20958;-75
2022/01/01 04:05:12;;;;;;;3.08;1.50;;;10.00;73.00;;;;;;2548036;52;20973;-75
2022/01/01 04:07:39;;;;;;;4.00;1.77;;;9.90;74.20;;;;;;2371621;53;21278;-75
2022/01/01 04:10:05;;;;;;;4.78;2.03;;;9.90;75.00;;;;;;2399021;52;21343;-75
2022/01/01 04:12:33;;;;;;;4.50;2.30;;;9.90;76.30;;;;;;2335536;53;20992;-75
2022/01/01 04:15:01;;;;;;;4.35;2.15;;;9.90;77.30;;;;;;2470245;52;20982;-75
2022/01/01 04:17:27;;;;;;;3.08;1.55;;;9.90;77.80;;;;;;2355849;54;21017;-75
2022/01/01 04:19:54;;;;;;;3.08;1.60;;;10.00;77.00;;;;;;2373873;52;20986;-75
2022/01/01 04:22:21;;;;;;;5.05;2.65;;;10.00;77.10;;;;;;2373318;53;21312;-75
2022/01/01 04:24:47;;;;;;;7.85;4.40;;;10.10;77.10;;;;;;2367589;52;21626;-75
2022/01/01 04:27:13;;;;;;;6.95;3.37;;;10.10;76.60;;;;;;2357031;53;20908;-74
2022/01/01 04:29:41;;;;;;;6.25;3.12;;;10.10;76.10;;;;;;2369113;53;21033;-75
2022/01/01 04:32:09;;;;;;;5.72;2.67;;;10.20;75.90;;;;;;2509741;52;20985;-75
2022/01/01 04:34:35;;;;;;;5.53;2.25;;;10.10;75.60;;;;;;2566674;52;21282;-75
2022/01/01 04:37:11;;;;;;;3.92;1.65;;;10.10;76.00;;;;;;2355037;53;20922;-74
2022/01/01 04:39:38;;;;;;;4.62;1.70;;;10.10;75.10;;;;;;2359763;53;21027;-75
2022/01/01 04:42:05;;;;;;;3.58;1.70;;;10.10;74.80;;;;;;2345080;53;20995;-75
2022/01/01 04:44:31;;;;;;;3.10;1.52;;;10.10;74.50;;;;;;2624534;52;21336;-75
2022/01/01 04:46:58;;;;;;;3.62;1.70;;;10.10;74.20;;;;;;2372132;53;20949;-75
2022/01/01 04:49:24;;;;;;;3.62;1.80;;;10.10;73.80;;;;;;2534085;52;20917;-75
2022/01/01 04:51:50;;;;;;;4.25;1.75;;;10.00;73.60;;;;;;2496652;52;20930;-75
2022/01/01 04:54:17;;;;;;;3.65;1.65;;;10.00;73.50;;;;;;2623890;52;20958;-75
2022/01/01 04:56:44;;;;;;;4.68;2.08;;;10.00;73.50;;;;;;2361214;53;21022;-75
2022/01/01 04:59:11;;;;;;;4.00;2.10;;;9.90;74.30;;;;;;2390818;53;21549;-75
2022/01/01 05:01:38;;;;;;;4.32;2.03;;;9.90;74.20;;;;;;2356360;53;21725;-75
2022/01/01 05:04:05;;;;;;;4.57;2.33;;;9.80;74.00;;;;;;2366703;53;21689;-75
2022/01/01 05:06:31;;;;;;;5.45;2.80;;;9.80;73.90;;;;;;2345344;53;20886;-75
2022/01/01 05:08:57;;;;;;;4.97;2.55;;;9.70;73.80;;;;;;2361368;53;20962;-75
2022/01/01 05:11:24;;;;;;;5.25;2.97;;;9.70;73.80;;;;;;2353948;53;20967;-75
2022/01/01 05:13:53;;;;;;;5.57;3.12;;;9.60;73.80;;;;;;2368628;53;20931;-75
2022/01/01 05:16:20;;;;;;;6.72;3.25;;;9.60;73.90;;;;;;2370767;53;20961;-75
2022/01/01 05:18:46;;;;;;;5.60;3.20;;;9.50;73.80;;;;;;2360596;53;21027;-75
2022/01/01 05:21:13;;;;;;;6.15;3.22;;;9.50;73.80;;;;;;2361345;53;21081;-75
2022/01/01 05:23:39;;;;;;;5.68;3.30;;;9.50;73.80;;;;;;2371154;53;21446;-75
2022/01/01 05:26:05;;;;;;;5.60;3.17;;;9.40;73.60;;;;;;2371044;53;20910;-75
2022/01/01 05:28:31;;;;;;;5.37;2.62;;;9.40;73.60;;;;;;2371375;53;20918;-75
2022/01/01 05:31:00;;;;;;;8.10;3.62;;;9.30;73.50;;;;;;2623445;52;20994;-75
2022/01/01 05:33:27;;;;;;;6.03;3.20;;;9.30;73.30;;;;;;2614663;52;20953;-74
2022/01/01 05:35:53;;;;;;;6.43;3.25;;;9.30;73.20;;;;;;2432362;52;21042;-75
2022/01/01 05:38:19;;;;;;;6.90;3.65;;;9.20;73.10;;;;;;2356311;53;20934;-76
2022/01/01 05:40:51;;;;;;;6.28;3.50;;;9.10;73.00;;;;;;2494024;52;20942;-75
2022/01/01 05:43:17;;;;;;;6.15;3.80;;;9.10;73.10;;;;;;2516075;52;20968;-75
2022/01/01 05:45:44;;;;;;;6.12;3.50;;;9.00;73.00;;;;;;2351845;53;20971;-74
2022/01/01 05:48:10;;;;;;;5.68;2.85;;;9.00;73.00;;;;;;2366318;53;21626;-75
2022/01/01 05:50:37;;;;;;;5.78;3.22;;;8.90;73.00;;;;;;2469966;52;20999;-75
2022/01/01 05:53:04;;;;;;;6.07;3.30;;;8.90;73.20;;;;;;2351102;54;21093;-75
2022/01/01 05:55:30;;;;;;;5.60;3.15;;;8.90;73.40;;;;;;2365023;53;21463;-75
2022/01/01 05:57:56;;;;;;;6.30;3.47;;;8.80;73.60;;;;;;2550044;53;21861;-75
2022/01/01 06:00:23;;;;;;;6.97;3.78;;;8.80;73.70;;;;;;2382885;52;21026;-75
2022/01/01 06:02:49;;;;;;;7.57;3.92;;;8.80;73.90;;;;;;2454808;52;20979;-75
2022/01/01 06:05:17;;;;;;;6.15;3.40;;;8.80;74.00;;;;;;2364262;53;21509;-75
2022/01/01 06:07:47;;;;;;;6.47;3.40;;;8.70;74.00;;;;;;2354665;53;21037;-75
2022/01/01 06:10:13;;;;;;;5.90;3.20;;;8.70;74.00;;;;;;2349876;53;20961;-75
2022/01/01 06:12:39;;;;;;;6.70;3.33;;;8.70;73.90;;;;;;2356446;53;21260;-75
2022/01/01 06:15:06;;;;;;;6.25;3.55;;;8.70;73.90;;;;;;2349464;53;20968;-75
2022/01/01 06:17:32;;;;;;;7.78;3.17;;;8.70;73.90;;;;;;2361846;53;21454;-75
2022/01/01 06:19:59;;;;;;;6.05;3.00;;;8.60;73.80;;;;;;2371061;53;21021;-75
2022/01/01 06:22:26;;;;;;;6.70;3.28;;;8.60;73.70;;;;;;2373001;53;20970;-75
2022/01/01 06:24:52;;;;;;;5.82;3.60;;;8.60;73.60;;;;;;2361723;53;20974;-75
2022/01/01 06:27:18;;;;;;;5.32;3.25;;;8.60;73.70;;;;;;2370599;53;20993;-75
2022/01/01 06:29:45;;;;;;;6.65;3.78;;;8.50;73.70;;;;;;2508741;52;20975;-75
2022/01/01 06:32:12;;;;;;;6.62;3.55;;;8.50;73.80;;;;;;2359336;53;20910;-75
2022/01/01 06:34:38;;;;;;;6.72;3.65;;;8.50;73.90;;;;;;2368906;53;20942;-75
2022/01/01 06:37:07;;;;;;;5.32;3.20;;;8.50;73.90;;;;;;2373142;52;21693;-75
2022/01/01 06:39:34;;;;;;;6.18;3.40;;;8.50;73.90;;;;;;2357279;53;20984;-75
2022/01/01 06:42:01;;;;;;;5.50;3.08;;;8.50;73.80;;;;;;2371012;53;21029;-75
2022/01/01 06:44:27;;;;;;;6.57;3.47;;;8.40;73.70;;;;;;2623896;52;21469;-75
2022/01/01 06:46:54;;;;;;;5.78;3.00;;;8.40;73.70;;;;;;2506669;52;20953;-75
2022/01/01 06:49:20;;;;;;;6.82;3.70;;;8.40;73.60;;;;;;2617194;52;20926;-75
2022/01/01 06:51:46;;;;;;;5.50;3.50;;;8.40;73.60;;;;;;2351210;54;20967;-75
2022/01/01 06:54:12;;;;;;;6.12;3.58;;;8.30;73.40;;;;;;2351243;54;20997;-75
2022/01/01 06:56:39;;;;;;;4.65;3.00;;;8.30;73.60;;;;;;2353039;53;21074;-74
2022/01/01 06:59:05;;;;;;;5.97;3.35;;;8.30;73.60;;;;;;2369406;53;20998;-75
2022/01/01 07:01:31;;;;;;;5.70;3.08;;;8.30;73.60;;;;;;2388693;52;20926;-74
2022/01/01 07:03:58;;;;;;;5.03;3.00;;;8.20;73.40;;;;;;2595940;52;20980;-75
2022/01/01 07:06:24;;;;;;;6.07;3.05;;;8.20;73.40;;;;;;2340332;54;21471;-74
2022/01/01 07:08:51;;;;;;;5.95;3.12;;;8.20;73.50;;;;;;2352925;53;20935;-74
2022/01/01 07:11:17;;;;;;;6.22;3.70;;;8.10;73.40;;;;;;2365254;53;21736;-75
2022/01/01 07:13:43;;;;;;;6.03;3.35;;;8.10;73.50;;;;;;2475327;52;20971;-75
2022/01/01 07:16:09;;;;;;;4.93;2.95;;;8.10;73.50;;;;;;2369926;53;21820;-75
2022/01/01 07:18:36;;;;;;;5.37;3.15;;;8.10;73.50;;;;;;2370753;53;20997;-75
2022/01/01 07:21:02;;;;;;;6.70;3.70;;;8.00;73.50;;;;;;2502320;52;21009;-75
2022/01/01 07:23:28;;;;;;;7.40;4.18;;;8.00;73.50;;;;;;2366596;53;20981;-75
2022/01/01 07:25:55;;;;;;;6.20;3.75;;;8.00;73.60;;;;;;2623200;52;20977;-76
2022/01/01 07:28:21;;;;;;;6.90;3.62;;;8.00;73.50;;;;;;2464126;52;21437;-75
2022/01/01 07:30:48;;;;;;;7.00;3.78;;;7.90;73.40;;;;;;2353578;54;20961;-75
2022/01/01 07:33:17;;;;;;;5.03;2.75;;;7.90;73.30;;;;;;2619025;52;21000;-74
2022/01/01 07:35:43;;;;;;;7.12;3.30;;;7.90;73.40;;;;;;2368569;53;20957;-74
2022/01/01 07:38:10;;;;;;;5.18;2.92;;;7.90;73.50;;;;;;2371429;53;21417;-74
2022/01/01 07:40:39;;;;;;;5.90;3.47;;;7.80;73.60;;;;;;2338591;54;20954;-74
2022/01/01 07:43:12;;;;;;;5.97;3.10;;;7.80;73.60;;;;;;2369586;53;21029;-75
2022/01/01 07:45:38;;;;;;;6.97;3.87;;;7.80;73.60;;;;;;2351279;54;20946;-74
2022/01/01 07:48:05;;;;;;;7.30;4.10;;;7.80;73.70;;;;;;2623295;52;20918;-75
2022/01/01 07:50:32;;;;;;;7.55;4.10;;;7.80;73.80;;;;;;2370029;53;20949;-75
2022/01/01 07:53:01;;;;;;;7.62;4.22;;;7.70;73.70;;;;;;2373800;53;21096;-75
2022/01/01 07:55:27;;;;;;;6.53;4.03;;;7.70;73.80;;;;;;2348691;53;20921;-75
2022/01/01 07:57:53;;;;;;;5.18;2.90;;;7.70;73.90;;;;;;2356289;53;20940;-75
2022/01/01 08:00:20;;;;;;;6.00;3.47;;;7.70;74.10;;;;;;2348753;53;21080;-75
2022/01/01 08:02:46;;;;;;;7.72;4.45;;;7.70;74.20;;;;;;2530146;52;20946;-75
2022/01/01 08:05:13;;;;;;;7.05;4.18;;;7.70;74.30;;;;;;2484981;52;21279;-75
2022/01/01 08:07:39;;;;;;;6.70;4.05;;;7.70;74.50;;;;;;2506688;52;20934;-75
2022/01/01 08:10:27;;;;;;;5.85;3.53;;;7.70;74.60;;;;;;2420123;52;21080;-75
2022/01/01 08:12:53;;;;;;;6.87;3.83;;;7.70;74.60;;;;;;2589457;52;21809;-74
2022/01/01 08:15:19;;;;;;;7.97;4.30;;;7.70;74.70;;;;;;2592310;52;21430;-75
2022/01/01 08:17:45;;;;;;;9.00;5.05;;;7.70;74.80;;;;;;2341482;54;20961;-74
2022/01/01 08:20:12;;;;;;;9.48;5.47;;;7.70;74.90;;;;;;2327993;53;21005;-75
2022/01/01 08:22:39;;;;;;;11.70;6.35;;;7.70;74.90;;;;;;2516351;52;20967;-75
2022/01/01 08:25:06;;;;;;;11.15;5.37;;;7.70;75.00;;;;;;2341599;53;20988;-75
2022/01/01 08:27:32;;;;;;;10.57;5.78;;;7.80;75.20;;;;;;2345688;53;20944;-75
2022/01/01 08:29:59;;;;;;;11.23;6.68;;;7.80;75.20;;;;;;2455420;53;20976;-74
2022/01/01 08:32:25;;;;;;;13.10;7.10;;;7.80;75.30;;;;;;2343401;54;20925;-75
2022/01/01 08:34:52;;;;;;;9.25;5.57;;;7.80;75.30;;;;;;2342877;54;20973;-75
2022/01/01 08:37:20;;;;;;;9.73;6.10;;;7.80;75.40;;;;;;2526007;53;21015;-75
2022/01/01 08:39:47;;;;;;;11.60;6.62;;;7.90;75.60;;;;;;2516567;52;21190;-75
2022/01/01 08:42:13;;;;;;;11.88;7.65;;;7.90;75.70;;;;;;2458628;52;20916;-75
2022/01/01 08:44:40;;;;;;;12.80;7.68;;;7.90;75.90;;;;;;2371924;53;20922;-75
2022/01/01 08:47:06;;;;;;;13.02;8.25;;;7.90;76.10;;;;;;2348389;54;20937;-75
2022/01/01 08:49:32;;;;;;;12.75;8.75;;;8.00;76.40;;;;;;2344323;53;21264;-75
2022/01/01 08:51:59;;;;;;;11.93;7.28;;;8.00;76.60;;;;;;2562200;52;20919;-75
2022/01/01 08:54:25;;;;;;;12.50;8.60;;;8.10;76.90;;;;;;2367604;53;21758;-75
2022/01/01 08:56:51;;;;;;;15.27;9.48;;;8.10;77.00;;;;;;2349016;53;21368;-74
2022/01/01 08:59:18;;;;;;;12.63;9.48;;;8.20;77.10;;;;;;2431807;52;21766;-74
2022/01/01 09:01:45;;;;;;;10.75;7.35;;;8.20;77.30;;;;;;2457885;52;20968;-75
2022/01/01 09:04:12;;;;;;;9.30;5.65;;;8.30;77.60;;;;;;2485570;52;20955;-75
2022/01/01 09:06:38;;;;;;;7.60;4.72;;;8.30;77.80;;;;;;2359297;53;20983;-75
2022/01/01 09:09:04;;;;;;;6.18;3.80;;;8.40;78.20;;;;;;2369770;52;21001;-75
2022/01/01 09:11:30;;;;;;;5.00;3.55;;;8.50;78.50;;;;;;2346374;54;21031;-75
2022/01/01 09:13:57;;;;;;;5.00;3.47;;;8.50;78.90;;;;;;2363784;53;20994;-75
2022/01/01 09:16:29;;;;;;;4.32;2.95;;;8.60;79.30;;;;;;2370175;53;21018;-75
2022/01/01 09:18:56;;;;;;;6.47;2.65;;;8.80;79.80;;;;;;2417923;53;20958;-75
2022/01/01 09:21:23;;;;;;;7.03;3.65;;;8.90;80.20;;;;;;2344834;53;20936;-75
2022/01/01 09:23:49;;;;;;;6.65;4.32;;;8.90;80.40;;;;;;2455390;53;20991;-75
2022/01/01 09:26:15;;;;;;;10.15;5.90;;;9.10;80.70;;;;;;2611438;52;21086;-75
2022/01/01 09:28:41;;;;;;;9.30;6.05;;;9.20;80.80;;;;;;2353067;53;20902;-75
2022/01/01 09:31:08;;;;;;;9.65;6.10;;;9.30;80.90;;;;;;2370634;53;20942;-75
2022/01/01 09:33:34;;;;;;;8.85;6.00;;;9.40;81.00;;;;;;2370770;53;20930;-75
2022/01/01 09:36:01;;;;;;;8.82;5.95;;;9.50;81.00;;;;;;2360815;53;20909;-75
2022/01/01 09:38:28;;;;;;;7.15;4.85;;;9.60;81.00;;;;;;2352627;53;20967;-75
2022/01/01 09:40:54;;;;;;;6.62;4.32;;;9.70;81.00;;;;;;2355611;53;21420;-75
2022/01/01 09:43:24;;;;;;;6.97;4.87;;;9.80;80.90;;;;;;2370149;53;20962;-75
2022/01/01 09:45:51;;;;;;;8.32;4.40;;;9.90;80.80;;;;;;2382935;52;20930;-75
2022/01/01 09:48:19;;;;;;;7.15;3.92;;;10.00;79.70;;;;;;2350974;53;20912;-75
2022/01/01 09:50:48;;;;;;;7.00;4.47;;;10.10;79.70;;;;;;2462904;53;21573;-76
2022/01/01 09:53:17;;;;;;;5.55;3.50;;;10.20;79.70;;;;;;2346862;53;21003;-75
2022/01/01 09:55:43;;;;;;;5.80;3.40;;;10.30;79.60;;;;;;2358330;53;21019;-75
2022/01/01 09:58:10;;;;;;;6.95;3.85;;;10.40;79.80;;;;;;2358088;53;20962;-75
2022/01/01 10:00:36;;;;;;;5.90;3.42;;;10.50;79.80;;;;;;2516385;52;20999;-75
2022/01/01 10:03:02;;;;;;;6.80;4.05;;;10.60;79.90;;;;;;2357072;52;21000;-75
2022/01/01 10:05:29;;;;;;;7.07;4.45;;;10.60;79.70;;;;;;2352895;53;20926;-75
2022/01/01 10:08:01;;;;;;;7.93;4.53;;;10.70;79.80;;;;;;2622949;52;21272;-75
2022/01/01 10:10:28;;;;;;;8.27;4.97;;;10.80;79.70;;;;;;2343126;54;20918;-75
2022/01/01 10:12:55;;;;;;;9.20;5.43;;;10.90;79.90;;;;;;2338488;53;21004;-75
2022/01/01 10:15:21;;;;;;;9.05;5.45;;;11.00;80.00;;;;;;2473582;52;21687;-75
2022/01/01 10:17:47;;;;;;;7.30;4.57;;;11.10;80.00;;;;;;2370580;53;20954;-74
2022/01/01 10:20:13;;;;;;;6.82;4.10;;;11.20;80.10;;;;;;2445302;52;20951;-75
2022/01/01 10:22:40;;;;;;;5.32;3.33;;;11.30;80.20;;;;;;2356825;53;21996;-75
2022/01/01 10:28:00;;;;;;;6.00;4.12;;;11.50;80.30;;;;;;2370090;53;20959;-76
2022/01/01 10:30:45;;;;;;;8.50;4.30;;;11.60;80.50;;;;;;2480508;52;21003;-75
2022/01/01 10:33:17;;;;;;;7.03;4.05;;;11.70;80.10;;;;;;2358367;53;21372;-74
2022/01/01 10:35:52;;;;;;;6.57;4.28;;;11.80;80.60;;;;;;2458157;52;21761;-75
2022/01/01 10:38:28;;;;;;;6.60;4.20;;;11.90;80.60;;;;;;2369704;53;21050;-75
2022/01/01 10:41:08;;;;;;;6.72;4.65;;;12.10;80.70;;;;;;2349702;53;20962;-75
2022/01/01 10:43:38;;;;;;;6.47;4.07;;;12.20;80.60;;;;;;2474851;53;21363;-75
2022/01/01 10:47:10;;;;;;;;;;;12.30;81.00;;;;;;2386999;54;20938;-76
2022/01/01 10:50:02;;;;;;;6.20;3.87;;;12.40;79.70;;;;;;2430796;53;1362835;-75
2022/01/01 10:52:29;;;;;;;7.43;4.87;;;12.60;82.20;;;;;;2335339;53;21419;-76
2022/01/01 10:55:06;;;;;;;7.22;4.72;;;12.80;85.30;;;;;;2358976;53;21457;-75
2022/01/01 10:57:37;;;;;;;7.40;5.25;;;13.20;88.50;;;;;;2427671;52;20953;-78
2022/01/01 11:00:20;;;;;;;8.30;5.53;;;13.70;90.40;;;;;;2333496;53;21096;-76
2022/01/01 11:02:57;;;;;;;7.25;4.75;;;14.20;91.20;;;;;;2492998;52;21050;-76
2022/01/01 11:05:36;;;;;;;7.68;4.82;;;14.80;91.70;;;;;;2412055;53;21036;-77
2022/01/01 11:08:04;;;;;;;6.18;4.03;;;15.40;91.80;;;;;;2354312;53;21074;-76
2022/01/01 11:10:31;;;;;;;6.43;4.25;;;15.90;92.00;;;;;;2412115;53;20922;-76
2022/01/01 11:12:57;;;;;;;6.40;4.12;;;16.50;91.90;;;;;;2385986;52;21053;-76
2022/01/01 11:15:25;;;;;;;6.25;3.80;;;16.90;91.40;;;;;;2370581;53;20930;-77
2022/01/01 11:17:52;;;;;;;6.15;3.85;;;17.30;91.00;;;;;;2370223;53;20925;-76
2022/01/01 11:20:18;;;;;;;5.65;3.65;;;17.80;90.50;;;;;;2369248;53;20922;-78
2022/01/01 11:22:49;;;;;;;6.75;4.07;;;18.20;89.70;;;;;;2370375;53;21005;-76
2022/01/01 11:25:16;;;;;;;5.90;3.45;;;18.50;87.80;;;;;;2346787;54;20994;-79
2022/01/01 11:27:44;;;;;;;5.43;3.62;;;18.70;85.90;;;;;;2374829;52;20950;-76
2022/01/01 11:30:13;;;;;;;4.57;2.92;;;19.00;85.00;;;;;;2449889;52;20948;-79
2022/01/01 11:32:51;;;;;;;4.87;2.80;;;19.10;84.00;;;;;;2368709;53;21052;-75
2022/01/01 11:35:27;;;;;;;4.05;2.60;;;19.30;82.30;;;;;;2373663;53;20993;-76
2022/01/01 11:38:58;;;;;;;4.50;2.53;;;19.40;81.00;;;;;;2370250;53;20971;-76
2022/01/01 11:41:35;;;;;;;4.50;2.30;;;19.50;78.20;;;;;;2402150;52;21233;-76
2022/01/01 11:44:02;;;;;;;4.40;2.47;;;19.40;78.90;;;;;;2368648;53;21416;-76
2022/01/01 11:46:33;;;;;;;4.25;2.40;;;19.40;77.80;;;;;;2575185;52;21646;-76
2022/01/01 11:49:01;;;;;;;3.90;2.15;;;19.30;77.30;;;;;;2359861;53;20953;-76
2022/01/01 11:51:38;;;;;;;3.95;2.15;;;19.20;76.90;;;;;;2434175;52;20914;-76
2022/01/01 11:55:35;;;;;;;3.62;1.80;;;19.20;76.10;;;;;;2350996;53;20983;-76
2022/01/01 11:58:11;;;;;;;4.72;2.00;;;19.10;75.20;;;;;;2501447;52;21018;-76
2022/01/01 12:00:55;;;;;;;3.58;1.85;;;19.00;76.30;;;;;;2369757;53;20977;-76
2022/01/01 12:03:23;;;;;;;4.78;2.40;;;19.00;75.40;;;;;;2414269;52;21558;-76
2022/01/01 12:06:03;;;;;;;5.62;3.33;;;18.90;76.30;;;;;;2368638;53;20934;-77
2022/01/01 12:08:42;;;;;;;6.62;2.65;;;18.90;74.90;;;;;;2406202;52;20989;-77
2022/01/01 12:11:08;;;;;;;6.10;2.60;;;18.80;75.00;;;;;;2370515;53;20945;-76
2022/01/01 12:13:35;;;;;;;6.78;3.75;;;18.70;76.00;;;;;;2428771;52;21043;-77
2022/01/01 12:16:21;;;;;;;6.70;4.00;;;18.70;75.90;;;;;;2333044;54;20984;-76
2022/01/01 12:18:48;;;;;;;5.10;2.90;;;18.70;74.60;;;;;;2466327;52;21529;-76
2022/01/01 12:21:22;;;;;;;5.55;3.25;;;18.70;76.60;;;;;;2353353;53;21697;-75
2022/01/01 12:23:54;;;;;;;5.28;2.83;;;18.60;76.00;;;;;;2357191;53;20955;-76
2022/01/01 12:26:30;;;;;;;6.28;3.53;;;18.70;77.50;;;;;;2361246;53;21009;-77
2022/01/01 12:29:01;;;;;;;5.00;3.05;;;18.70;77.30;;;;;;2477236;52;20973;-76
2022/01/01 12:31:31;;;;;;;5.70;3.53;;;18.80;77.30;;;;;;2333583;54;20955;-76
2022/01/01 12:34:01;;;;;;;7.12;3.47;;;18.90;78.10;;;;;;2347558;54;20995;-76
2022/01/01 12:36:28;;;;;;;4.85;2.70;;;19.00;78.20;;;;;;2362641;53;20945;-75
2022/01/01 12:38:56;;;;;;;4.55;2.80;;;19.10;78.30;;;;;;2349210;53;20975;-75
2022/01/01 12:42:30;;;;;;;4.35;2.35;;;19.20;78.00;;;;;;2346163;53;20969;-77
2022/01/01 12:45:01;;;;;;;5.20;3.12;;;19.30;74.80;;;;;;2370475;53;20994;-76
2022/01/01 12:47:27;;;;;;;6.15;2.78;;;19.30;76.20;;;;;;2370292;53;21450;-76
2022/01/01 12:49:54;;;;;;;4.82;2.70;;;19.30;76.40;;;;;;2391339;52;21000;-78
2022/01/01 12:52:24;;;;;;;4.82;2.58;;;19.30;76.50;;;;;;2348822;53;21009;-75
2022/01/01 12:54:50;;;;;;;5.62;2.92;;;19.40;75.90;;;;;;2389296;52;20954;-76
2022/01/01 12:57:20;;;;;;;4.68;2.72;;;19.40;76.10;;;;;;2370150;53;20950;-77
2022/01/01 12:59:48;;;;;;;4.65;2.72;;;19.40;76.10;;;;;;2364743;53;21031;-78
2022/01/01 13:02:15;;;;;;;4.95;2.95;;;19.40;76.30;;;;;;2587768;52;20923;-76
2022/01/01 13:04:41;;;;;;;4.18;2.70;;;19.50;76.40;;;;;;2370372;53;20905;-78